sensor_id;sensor_type;location;lat;lon;timestamp;pressure;altitude;pressure_sealevel;temperature;humidity
61742;BME280;47650;49.848;9.620;2022-11-03T00:00:05;100160.94;;;5.43;72.43
61742;BME280;47650;49.848;9.620;2022-11-03T00:02:31;100162.00;;;5.40;72.35
61742;BME280;47650;49.848;9.620;2022-11-03T00:04:59;100157.97;;;5.35;72.19
61742;BME280;47650;49.848;9.620;2022-11-03T00:07:44;100143.22;;;5.32;72.21
61742;BME280;47650;49.848;9.620;2022-11-03T00:10:09;100126.81;;;5.28;72.67
61742;BME280;47650;49.848;9.620;2022-11-03T00:12:35;100129.53;;;5.27;72.22
61742;BME280;47650;49.848;9.620;2022-11-03T00:15:00;100132.91;;;5.29;72.88
61742;BME280;47650;49.848;9.620;2022-11-03T00:17:26;100136.59;;;5.26;73.06
61742;BME280;47650;49.848;9.620;2022-11-03T00:19:51;100145.53;;;5.09;72.38
61742;BME280;47650;49.848;9.620;2022-11-03T00:22:17;100143.66;;;5.12;72.70
61742;BME280;47650;49.848;9.620;2022-11-03T00:27:09;100140.09;;;5.13;73.46
61742;BME280;47650;49.848;9.620;2022-11-03T00:29:34;100144.19;;;5.17;72.75
61742;BME280;47650;49.848;9.620;2022-11-03T00:31:59;100129.25;;;5.17;73.35
61742;BME280;47650;49.848;9.620;2022-11-03T00:34:25;100135.63;;;5.27;73.33
61742;BME280;47650;49.848;9.620;2022-11-03T00:36:50;100134.59;;;5.30;73.21
61742;BME280;47650;49.848;9.620;2022-11-03T00:39:15;100144.50;;;5.39;72.78
61742;BME280;47650;49.848;9.620;2022-11-03T00:41:41;100133.06;;;5.40;73.37
61742;BME280;47650;49.848;9.620;2022-11-03T00:44:06;100127.72;;;5.42;72.92
61742;BME280;47650;49.848;9.620;2022-11-03T00:46:36;100123.81;;;5.47;72.62
61742;BME280;47650;49.848;9.620;2022-11-03T00:49:03;100103.78;;;5.32;72.08
61742;BME280;47650;49.848;9.620;2022-11-03T00:51:28;100135.09;;;5.50;72.30
61742;BME280;47650;49.848;9.620;2022-11-03T00:54:00;100127.84;;;5.53;72.84
61742;BME280;47650;49.848;9.620;2022-11-03T00:56:28;100106.34;;;5.46;72.02
61742;BME280;47650;49.848;9.620;2022-11-03T00:58:57;100114.25;;;5.46;72.21
61742;BME280;47650;49.848;9.620;2022-11-03T01:01:24;100106.66;;;5.42;71.68
61742;BME280;47650;49.848;9.620;2022-11-03T01:03:55;100100.78;;;5.38;72.02
61742;BME280;47650;49.848;9.620;2022-11-03T01:06:43;100097.59;;;5.33;72.56
61742;BME280;47650;49.848;9.620;2022-11-03T01:09:19;100094.41;;;5.28;72.55
61742;BME280;47650;49.848;9.620;2022-11-03T01:14:34;100064.13;;;4.81;73.55
61742;BME280;47650;49.848;9.620;2022-11-03T01:17:10;100097.81;;;4.88;74.05
61742;BME280;47650;49.848;9.620;2022-11-03T01:19:38;100102.94;;;5.04;74.93
61742;BME280;47650;49.848;9.620;2022-11-03T01:22:04;100094.44;;;5.14;74.67
61742;BME280;47650;49.848;9.620;2022-11-03T01:24:29;100064.78;;;5.12;74.78
61742;BME280;47650;49.848;9.620;2022-11-03T01:26:54;100078.75;;;5.26;74.81
61742;BME280;47650;49.848;9.620;2022-11-03T01:29:20;100080.97;;;5.33;74.82
61742;BME280;47650;49.848;9.620;2022-11-03T01:31:45;100064.97;;;5.36;74.46
61742;BME280;47650;49.848;9.620;2022-11-03T01:34:15;100059.28;;;5.29;74.09
61742;BME280;47650;49.848;9.620;2022-11-03T01:36:41;100059.44;;;5.40;73.77
61742;BME280;47650;49.848;9.620;2022-11-03T01:39:14;100054.00;;;5.56;74.03
61742;BME280;47650;49.848;9.620;2022-11-03T01:41:41;100043.06;;;5.62;73.83
61742;BME280;47650;49.848;9.620;2022-11-03T01:46:33;100035.91;;;5.64;73.70
61742;BME280;47650;49.848;9.620;2022-11-03T01:49:07;100035.91;;;5.77;73.35
61742;BME280;47650;49.848;9.620;2022-11-03T01:51:34;100030.25;;;5.83;73.52
61742;BME280;47650;49.848;9.620;2022-11-03T01:54:04;100031.63;;;5.76;73.60
61742;BME280;47650;49.848;9.620;2022-11-03T01:56:32;100022.97;;;5.74;73.69
61742;BME280;47650;49.848;9.620;2022-11-03T01:58:59;100029.28;;;5.84;73.58
61742;BME280;47650;49.848;9.620;2022-11-03T02:01:25;100031.19;;;5.82;72.84
61742;BME280;47650;49.848;9.620;2022-11-03T02:03:54;100007.19;;;5.74;73.29
61742;BME280;47650;49.848;9.620;2022-11-03T02:06:24;100023.09;;;5.86;73.67
61742;BME280;47650;49.848;9.620;2022-11-03T02:08:56;100032.25;;;5.93;73.55
61742;BME280;47650;49.848;9.620;2022-11-03T02:11:26;99992.56;;;5.70;73.43
61742;BME280;47650;49.848;9.620;2022-11-03T02:14:11;99983.91;;;5.81;73.71
61742;BME280;47650;49.848;9.620;2022-11-03T02:16:38;100008.06;;;6.00;73.73
61742;BME280;47650;49.848;9.620;2022-11-03T02:19:08;99976.44;;;5.88;73.30
61742;BME280;47650;49.848;9.620;2022-11-03T02:21:55;99957.31;;;5.73;73.10
61742;BME280;47650;49.848;9.620;2022-11-03T02:24:23;100003.63;;;6.14;73.34
61742;BME280;47650;49.848;9.620;2022-11-03T02:26:54;99997.09;;;6.19;73.20
61742;BME280;47650;49.848;9.620;2022-11-03T02:29:20;99996.13;;;6.20;73.33
61742;BME280;47650;49.848;9.620;2022-11-03T02:31:49;99988.97;;;6.22;73.13
61742;BME280;47650;49.848;9.620;2022-11-03T02:34:22;99970.97;;;6.16;72.56
61742;BME280;47650;49.848;9.620;2022-11-03T02:37:01;99937.13;;;5.99;72.63
61742;BME280;47650;49.848;9.620;2022-11-03T02:39:39;99979.09;;;6.13;72.72
61742;BME280;47650;49.848;9.620;2022-11-03T02:42:08;99976.34;;;6.15;72.83
61742;BME280;47650;49.848;9.620;2022-11-03T02:44:35;99981.31;;;6.19;72.84
61742;BME280;47650;49.848;9.620;2022-11-03T02:47:05;99976.56;;;6.25;73.10
61742;BME280;47650;49.848;9.620;2022-11-03T02:49:38;99958.13;;;6.12;72.45
61742;BME280;47650;49.848;9.620;2022-11-03T02:52:29;99979.19;;;6.12;71.78
61742;BME280;47650;49.848;9.620;2022-11-03T02:54:52;99971.91;;;6.15;72.58
61742;BME280;47650;49.848;9.620;2022-11-03T02:57:22;99945.06;;;6.10;72.47
61742;BME280;47650;49.848;9.620;2022-11-03T03:00:17;99961.28;;;6.17;73.12
61742;BME280;47650;49.848;9.620;2022-11-03T03:03:01;99960.75;;;6.25;72.66
61742;BME280;47650;49.848;9.620;2022-11-03T03:05:30;99892.66;;;5.94;73.14
61742;BME280;47650;49.848;9.620;2022-11-03T03:08:01;99952.19;;;6.34;73.39
61742;BME280;47650;49.848;9.620;2022-11-03T03:10:32;99952.34;;;6.19;72.71
61742;BME280;47650;49.848;9.620;2022-11-03T03:12:58;99951.22;;;6.35;73.04
61742;BME280;47650;49.848;9.620;2022-11-03T03:18:13;99942.91;;;6.41;73.07
61742;BME280;47650;49.848;9.620;2022-11-03T03:20:50;99941.19;;;6.40;72.60
61742;BME280;47650;49.848;9.620;2022-11-03T03:23:28;99926.06;;;6.31;72.94
61742;BME280;47650;49.848;9.620;2022-11-03T03:26:09;99930.72;;;6.27;72.61
61742;BME280;47650;49.848;9.620;2022-11-03T03:28:44;99930.22;;;6.22;72.16
61742;BME280;47650;49.848;9.620;2022-11-03T03:31:13;99902.66;;;6.02;72.00
61742;BME280;47650;49.848;9.620;2022-11-03T03:33:43;99931.81;;;6.12;71.76
61742;BME280;47650;49.848;9.620;2022-11-03T03:36:13;99924.06;;;5.97;71.64
61742;BME280;47650;49.848;9.620;2022-11-03T03:38:55;99928.34;;;5.86;71.91
61742;BME280;47650;49.848;9.620;2022-11-03T03:41:27;99923.59;;;5.78;71.83
61742;BME280;47650;49.848;9.620;2022-11-03T03:43:58;99921.53;;;5.70;72.15
61742;BME280;47650;49.848;9.620;2022-11-03T03:46:34;99912.06;;;5.68;72.56
61742;BME280;47650;49.848;9.620;2022-11-03T03:49:03;99912.19;;;5.66;72.65
61742;BME280;47650;49.848;9.620;2022-11-03T03:51:30;99890.59;;;5.61;72.40
61742;BME280;47650;49.848;9.620;2022-11-03T03:53:55;99897.75;;;5.72;72.18
61742;BME280;47650;49.848;9.620;2022-11-03T03:56:31;99904.56;;;5.74;71.14
61742;BME280;47650;49.848;9.620;2022-11-03T03:58:58;99911.53;;;5.75;71.54
61742;BME280;47650;49.848;9.620;2022-11-03T04:01:24;99907.81;;;5.78;71.72
61742;BME280;47650;49.848;9.620;2022-11-03T04:03:56;99898.88;;;5.80;72.00
61742;BME280;47650;49.848;9.620;2022-11-03T04:06:21;99901.09;;;5.87;72.11
61742;BME280;47650;49.848;9.620;2022-11-03T04:08:47;99892.03;;;5.91;71.87
61742;BME280;47650;49.848;9.620;2022-11-03T04:11:12;99868.25;;;5.79;72.26
61742;BME280;47650;49.848;9.620;2022-11-03T04:14:05;99889.75;;;5.99;72.46
61742;BME280;47650;49.848;9.620;2022-11-03T04:16:50;99857.41;;;5.84;71.73
61742;BME280;47650;49.848;9.620;2022-11-03T04:19:33;99828.63;;;5.70;71.98
61742;BME280;47650;49.848;9.620;2022-11-03T04:22:17;99890.97;;;6.06;72.00
61742;BME280;47650;49.848;9.620;2022-11-03T04:24:49;99877.72;;;6.08;72.24
61742;BME280;47650;49.848;9.620;2022-11-03T04:27:36;99870.97;;;6.03;72.07
61742;BME280;47650;49.848;9.620;2022-11-03T04:32:35;99860.44;;;6.03;71.89
61742;BME280;47650;49.848;9.620;2022-11-03T04:35:09;99852.03;;;5.98;72.44
61742;BME280;47650;49.848;9.620;2022-11-03T04:37:38;99848.03;;;5.93;72.62
61742;BME280;47650;49.848;9.620;2022-11-03T04:40:12;99855.19;;;5.91;72.37
61742;BME280;47650;49.848;9.620;2022-11-03T04:42:40;99858.13;;;5.86;71.46
61742;BME280;47650;49.848;9.620;2022-11-03T04:45:22;99854.69;;;5.86;72.44
61742;BME280;47650;49.848;9.620;2022-11-03T04:47:48;99854.69;;;5.86;72.67
61742;BME280;47650;49.848;9.620;2022-11-03T04:50:17;99848.34;;;5.88;72.14
61742;BME280;47650;49.848;9.620;2022-11-03T04:52:45;99840.34;;;5.90;72.21
61742;BME280;47650;49.848;9.620;2022-11-03T04:55:14;99839.94;;;5.96;72.97
61742;BME280;47650;49.848;9.620;2022-11-03T04:57:39;99830.25;;;5.96;72.65
61742;BME280;47650;49.848;9.620;2022-11-03T05:00:09;99834.97;;;6.04;72.42
61742;BME280;47650;49.848;9.620;2022-11-03T05:02:37;99826.84;;;6.07;72.42
61742;BME280;47650;49.848;9.620;2022-11-03T05:05:14;99793.31;;;5.85;72.55
61742;BME280;47650;49.848;9.620;2022-11-03T05:07:41;99831.06;;;6.10;71.31
61742;BME280;47650;49.848;9.620;2022-11-03T05:10:14;99798.56;;;5.98;72.03
61742;BME280;47650;49.848;9.620;2022-11-03T05:12:41;99827.75;;;6.19;71.89
61742;BME280;47650;49.848;9.620;2022-11-03T05:15:22;99830.88;;;6.24;71.51
61742;BME280;47650;49.848;9.620;2022-11-03T05:17:50;99828.63;;;6.31;72.06
61742;BME280;47650;49.848;9.620;2022-11-03T05:20:34;99823.16;;;6.34;71.64
61742;BME280;47650;49.848;9.620;2022-11-03T05:23:09;99824.09;;;6.33;71.40
61742;BME280;47650;49.848;9.620;2022-11-03T05:25:44;99801.38;;;6.32;71.62
61742;BME280;47650;49.848;9.620;2022-11-03T05:28:18;99802.59;;;6.39;71.35
61742;BME280;47650;49.848;9.620;2022-11-03T05:30:47;99796.59;;;6.37;71.72
61742;BME280;47650;49.848;9.620;2022-11-03T05:33:31;99798.44;;;6.48;71.92
61742;BME280;47650;49.848;9.620;2022-11-03T05:36:01;99798.09;;;6.52;72.08
61742;BME280;47650;49.848;9.620;2022-11-03T05:38:31;99784.03;;;6.40;72.13
61742;BME280;47650;49.848;9.620;2022-11-03T05:40:59;99811.94;;;6.43;72.00
61742;BME280;47650;49.848;9.620;2022-11-03T05:43:25;99770.53;;;6.21;71.54
61742;BME280;47650;49.848;9.620;2022-11-03T05:45:55;99805.94;;;6.41;71.81
61742;BME280;47650;49.848;9.620;2022-11-03T05:48:38;99799.72;;;6.42;72.35
61742;BME280;47650;49.848;9.620;2022-11-03T05:51:28;99788.84;;;6.47;72.01
61742;BME280;47650;49.848;9.620;2022-11-03T05:54:01;99784.94;;;6.52;72.14
61742;BME280;47650;49.848;9.620;2022-11-03T05:56:27;99767.16;;;6.43;71.95
61742;BME280;47650;49.848;9.620;2022-11-03T05:58:56;99784.78;;;6.54;72.37
61742;BME280;47650;49.848;9.620;2022-11-03T06:01:29;99782.91;;;6.56;72.15
61742;BME280;47650;49.848;9.620;2022-11-03T06:04:11;99781.81;;;6.58;71.67
61742;BME280;47650;49.848;9.620;2022-11-03T06:06:39;99778.84;;;6.63;71.73
61742;BME280;47650;49.848;9.620;2022-11-03T06:09:15;99738.31;;;6.42;71.77
61742;BME280;47650;49.848;9.620;2022-11-03T06:11:43;99777.97;;;6.63;72.04
61742;BME280;47650;49.848;9.620;2022-11-03T06:14:15;99779.22;;;6.70;72.36
61742;BME280;47650;49.848;9.620;2022-11-03T06:16:46;99769.13;;;6.64;71.75
61742;BME280;47650;49.848;9.620;2022-11-03T06:19:25;99737.63;;;6.51;72.27
61742;BME280;47650;49.848;9.620;2022-11-03T06:21:53;99766.88;;;6.70;71.81
61742;BME280;47650;49.848;9.620;2022-11-03T06:24:28;99771.81;;;6.75;72.32
61742;BME280;47650;49.848;9.620;2022-11-03T06:26:58;99770.59;;;6.79;72.19
61742;BME280;47650;49.848;9.620;2022-11-03T06:29:24;99755.75;;;6.78;72.64
61742;BME280;47650;49.848;9.620;2022-11-03T06:31:53;99769.31;;;6.96;72.09
61742;BME280;47650;49.848;9.620;2022-11-03T06:37:07;99721.25;;;6.81;71.38
61742;BME280;47650;49.848;9.620;2022-11-03T06:39:34;99719.81;;;6.88;70.94
61742;BME280;47650;49.848;9.620;2022-11-03T06:42:10;99750.16;;;7.17;71.30
61742;BME280;47650;49.848;9.620;2022-11-03T06:44:39;99739.50;;;7.18;70.95
61742;BME280;47650;49.848;9.620;2022-11-03T06:47:23;99743.06;;;7.28;70.77
61742;BME280;47650;49.848;9.620;2022-11-03T06:49:50;99745.94;;;7.37;70.75
61742;BME280;47650;49.848;9.620;2022-11-03T06:52:26;99708.81;;;7.17;70.41
61742;BME280;47650;49.848;9.620;2022-11-03T06:54:59;99756.25;;;7.17;68.76
61742;BME280;47650;49.848;9.620;2022-11-03T06:57:27;99762.50;;;7.27;69.74
61742;BME280;47650;49.848;9.620;2022-11-03T06:59:54;99752.06;;;7.37;70.07
61742;BME280;47650;49.848;9.620;2022-11-03T07:02:49;99752.91;;;7.38;70.00
61742;BME280;47650;49.848;9.620;2022-11-03T07:05:27;99744.97;;;7.49;70.16
61742;BME280;47650;49.848;9.620;2022-11-03T07:07:54;99739.31;;;7.53;69.60
61742;BME280;47650;49.848;9.620;2022-11-03T07:10:24;99730.78;;;7.72;69.54
61742;BME280;47650;49.848;9.620;2022-11-03T07:12:50;99717.09;;;7.67;68.71
61742;BME280;47650;49.848;9.620;2022-11-03T07:15:23;99723.44;;;7.76;67.42
61742;BME280;47650;49.848;9.620;2022-11-03T07:17:51;99689.78;;;7.57;66.44
61742;BME280;47650;49.848;9.620;2022-11-03T07:20:16;99693.19;;;7.80;66.51
61742;BME280;47650;49.848;9.620;2022-11-03T07:22:42;99675.81;;;7.78;66.15
61742;BME280;47650;49.848;9.620;2022-11-03T07:25:15;99715.28;;;8.12;66.03
61742;BME280;47650;49.848;9.620;2022-11-03T07:27:42;99707.16;;;8.03;66.33
61742;BME280;47650;49.848;9.620;2022-11-03T07:30:39;99696.84;;;8.21;66.38
61742;BME280;47650;49.848;9.620;2022-11-03T07:33:20;99694.53;;;8.28;65.65
61742;BME280;47650;49.848;9.620;2022-11-03T07:35:47;99700.34;;;8.22;64.34
61742;BME280;47650;49.848;9.620;2022-11-03T07:38:15;99693.47;;;8.31;65.40
61742;BME280;47650;49.848;9.620;2022-11-03T07:40:43;99681.69;;;8.23;64.66
61742;BME280;47650;49.848;9.620;2022-11-03T07:43:17;99693.84;;;8.26;64.73
61742;BME280;47650;49.848;9.620;2022-11-03T07:45:52;99691.34;;;8.45;65.95
61742;BME280;47650;49.848;9.620;2022-11-03T07:48:33;99695.59;;;8.58;65.66
61742;BME280;47650;49.848;9.620;2022-11-03T07:51:06;99691.06;;;8.70;65.68
61742;BME280;47650;49.848;9.620;2022-11-03T07:53:41;99682.00;;;8.93;65.40
61742;BME280;47650;49.848;9.620;2022-11-03T07:56:21;99670.53;;;9.14;64.41
61742;BME280;47650;49.848;9.620;2022-11-03T08:05:05;99559.69;;;9.11;62.99
61742;BME280;47650;49.848;9.620;2022-11-03T08:07:31;99659.47;;;9.78;62.08
61742;BME280;47650;49.848;9.620;2022-11-03T08:09:57;99652.34;;;9.79;62.31
61742;BME280;47650;49.848;9.620;2022-11-03T08:12:23;99661.44;;;9.76;62.79
61742;BME280;47650;49.848;9.620;2022-11-03T08:14:48;99638.84;;;9.82;62.98
61742;BME280;47650;49.848;9.620;2022-11-03T08:17:14;99644.72;;;9.76;62.33
61742;BME280;47650;49.848;9.620;2022-11-03T08:19:40;99636.63;;;9.97;63.45
61742;BME280;47650;49.848;9.620;2022-11-03T08:22:06;99598.84;;;9.85;62.58
61742;BME280;47650;49.848;9.620;2022-11-03T08:24:31;99621.28;;;10.01;62.21
61742;BME280;47650;49.848;9.620;2022-11-03T08:27:03;99593.38;;;10.06;63.19
61742;BME280;47650;49.848;9.620;2022-11-03T08:29:29;99546.84;;;9.94;63.41
61742;BME280;47650;49.848;9.620;2022-11-03T08:31:54;99588.88;;;10.26;62.89
61742;BME280;47650;49.848;9.620;2022-11-03T08:34:19;99553.22;;;10.11;62.14
61742;BME280;47650;49.848;9.620;2022-11-03T08:39:13;99535.09;;;10.16;61.94
61742;BME280;47650;49.848;9.620;2022-11-03T08:41:40;99564.78;;;10.57;62.75
61742;BME280;47650;49.848;9.620;2022-11-03T08:44:05;99557.59;;;10.77;62.52
61742;BME280;47650;49.848;9.620;2022-11-03T08:46:33;99560.59;;;10.64;61.21
61742;BME280;47650;49.848;9.620;2022-11-03T08:48:59;99541.78;;;11.03;61.82
61742;BME280;47650;49.848;9.620;2022-11-03T08:51:24;99540.47;;;11.35;60.93
61742;BME280;47650;49.848;9.620;2022-11-03T08:53:49;99526.34;;;11.53;60.14
61742;BME280;47650;49.848;9.620;2022-11-03T08:56:19;99540.34;;;11.63;59.15
61742;BME280;47650;49.848;9.620;2022-11-03T08:58:45;99535.09;;;11.71;58.69
61742;BME280;47650;49.848;9.620;2022-11-03T09:01:11;99534.34;;;11.79;58.68
61742;BME280;47650;49.848;9.620;2022-11-03T09:03:38;99517.69;;;11.95;59.04
61742;BME280;47650;49.848;9.620;2022-11-03T09:06:04;99516.88;;;11.94;59.28
61742;BME280;47650;49.848;9.620;2022-11-03T09:08:31;99497.66;;;10.66;60.67
61742;BME280;47650;49.848;9.620;2022-11-03T09:10:57;99520.50;;;11.31;61.08
61742;BME280;47650;49.848;9.620;2022-11-03T09:13:24;99520.88;;;11.36;60.46
61742;BME280;47650;49.848;9.620;2022-11-03T09:15:49;99510.56;;;11.77;59.69
61742;BME280;47650;49.848;9.620;2022-11-03T09:18:16;99502.56;;;12.21;58.93
61742;BME280;47650;49.848;9.620;2022-11-03T09:20:41;99490.22;;;12.47;57.20
61742;BME280;47650;49.848;9.620;2022-11-03T09:23:07;99471.91;;;12.94;56.44
61742;BME280;47650;49.848;9.620;2022-11-03T09:25:32;99481.41;;;12.54;55.91
61742;BME280;47650;49.848;9.620;2022-11-03T09:27:57;99479.06;;;12.43;58.45
61742;BME280;47650;49.848;9.620;2022-11-03T09:30:27;99453.16;;;12.45;57.62
61742;BME280;47650;49.848;9.620;2022-11-03T09:32:53;99442.63;;;13.19;57.74
61742;BME280;47650;49.848;9.620;2022-11-03T09:35:19;99462.13;;;12.44;57.43
61742;BME280;47650;49.848;9.620;2022-11-03T09:37:44;99465.75;;;11.30;61.36
61742;BME280;47650;49.848;9.620;2022-11-03T09:40:17;99470.53;;;11.26;62.18
61742;BME280;47650;49.848;9.620;2022-11-03T09:42:43;99474.94;;;13.49;58.99
61742;BME280;47650;49.848;9.620;2022-11-03T09:45:09;99468.81;;;14.92;55.64
61742;BME280;47650;49.848;9.620;2022-11-03T09:47:44;99458.59;;;15.56;51.63
61742;BME280;47650;49.848;9.620;2022-11-03T09:50:15;99453.78;;;16.86;49.64
61742;BME280;47650;49.848;9.620;2022-11-03T09:52:41;99448.88;;;17.61;46.80
61742;BME280;47650;49.848;9.620;2022-11-03T09:55:20;99438.97;;;18.25;44.91
61742;BME280;47650;49.848;9.620;2022-11-03T09:57:47;99425.81;;;18.91;43.21
61742;BME280;47650;49.848;9.620;2022-11-03T10:00:17;99418.22;;;18.47;41.98
61742;BME280;47650;49.848;9.620;2022-11-03T10:02:43;99474.88;;;14.77;51.16
61742;BME280;47650;49.848;9.620;2022-11-03T10:05:12;99455.53;;;16.12;50.75
61742;BME280;47650;49.848;9.620;2022-11-03T10:07:39;99440.66;;;14.49;54.26
61742;BME280;47650;49.848;9.620;2022-11-03T10:10:14;99426.03;;;16.35;52.06
61742;BME280;47650;49.848;9.620;2022-11-03T10:12:41;99420.56;;;14.30;54.57
61742;BME280;47650;49.848;9.620;2022-11-03T10:15:13;99432.50;;;15.06;54.76
61742;BME280;47650;49.848;9.620;2022-11-03T10:17:39;99421.66;;;15.07;53.13
61742;BME280;47650;49.848;9.620;2022-11-03T10:20:09;99392.19;;;15.15;53.38
61742;BME280;47650;49.848;9.620;2022-11-03T10:22:35;99403.97;;;15.44;54.15
61742;BME280;47650;49.848;9.620;2022-11-03T10:25:36;99413.41;;;16.00;51.11
61742;BME280;47650;49.848;9.620;2022-11-03T10:28:16;99404.06;;;15.66;51.00
61742;BME280;47650;49.848;9.620;2022-11-03T10:30:48;99390.78;;;16.90;50.02
61742;BME280;47650;49.848;9.620;2022-11-03T10:33:33;99374.81;;;16.60;50.50
61742;BME280;47650;49.848;9.620;2022-11-03T10:36:06;99381.78;;;14.28;55.74
61742;BME280;47650;49.848;9.620;2022-11-03T10:38:46;99376.44;;;14.82;55.58
61742;BME280;47650;49.848;9.620;2022-11-03T10:43:59;99360.03;;;15.09;54.00
61742;BME280;47650;49.848;9.620;2022-11-03T10:46:26;99351.63;;;16.09;52.45
61742;BME280;47650;49.848;9.620;2022-11-03T10:49:05;99349.06;;;16.81;51.79
61742;BME280;47650;49.848;9.620;2022-11-03T10:51:36;99309.84;;;16.66;49.57
61742;BME280;47650;49.848;9.620;2022-11-03T10:54:03;99322.59;;;17.49;48.28
61742;BME280;47650;49.848;9.620;2022-11-03T10:56:30;99217.84;;;17.02;48.44
61742;BME280;47650;49.848;9.620;2022-11-03T10:58:58;99303.25;;;17.89;47.67
61742;BME280;47650;49.848;9.620;2022-11-03T11:01:24;99299.16;;;17.93;46.79
61742;BME280;47650;49.848;9.620;2022-11-03T11:03:50;99283.50;;;18.10;47.23
61742;BME280;47650;49.848;9.620;2022-11-03T11:06:28;99280.47;;;18.33;46.86
61742;BME280;47650;49.848;9.620;2022-11-03T11:08:59;99265.72;;;17.95;46.05
61742;BME280;47650;49.848;9.620;2022-11-03T11:11:25;99269.31;;;18.42;47.54
61742;BME280;47650;49.848;9.620;2022-11-03T11:16:57;99265.78;;;18.15;46.73
61742;BME280;47650;49.848;9.620;2022-11-03T11:19:26;99272.97;;;16.90;49.48
61742;BME280;47650;49.848;9.620;2022-11-03T11:30:02;99253.06;;;17.82;49.05
61742;BME280;47650;49.848;9.620;2022-11-03T11:35:04;99231.97;;;18.74;44.97
61742;BME280;47650;49.848;9.620;2022-11-03T11:37:33;99226.19;;;16.64;50.94
61742;BME280;47650;49.848;9.620;2022-11-03T11:39:58;99198.50;;;18.23;47.65
61742;BME280;47650;49.848;9.620;2022-11-03T11:42:23;99211.72;;;18.98;45.52
61742;BME280;47650;49.848;9.620;2022-11-03T11:44:57;99215.44;;;18.31;47.65
61742;BME280;47650;49.848;9.620;2022-11-03T11:49:48;99206.06;;;16.68;50.95
61742;BME280;47650;49.848;9.620;2022-11-03T11:52:14;99196.66;;;16.79;50.79
61742;BME280;47650;49.848;9.620;2022-11-03T11:54:40;99170.03;;;17.47;49.67
61742;BME280;47650;49.848;9.620;2022-11-03T11:57:19;99182.06;;;15.67;53.91
61742;BME280;47650;49.848;9.620;2022-11-03T11:59:46;99189.38;;;15.07;56.03
61742;BME280;47650;49.848;9.620;2022-11-03T12:02:19;99189.31;;;15.88;54.60
61742;BME280;47650;49.848;9.620;2022-11-03T12:04:47;99166.19;;;15.44;54.95
61742;BME280;47650;49.848;9.620;2022-11-03T12:07:33;99170.63;;;15.37;55.89
61742;BME280;47650;49.848;9.620;2022-11-03T12:10:08;99163.41;;;14.71;57.76
61742;BME280;47650;49.848;9.620;2022-11-03T12:12:37;99153.47;;;15.83;56.15
61742;BME280;47650;49.848;9.620;2022-11-03T12:15:02;99122.44;;;16.60;54.46
61742;BME280;47650;49.848;9.620;2022-11-03T12:19:53;99092.66;;;17.18;51.54
61742;BME280;47650;49.848;9.620;2022-11-03T12:24:54;99121.91;;;17.19;52.40
61742;BME280;47650;49.848;9.620;2022-11-03T12:29:53;99136.38;;;15.62;54.88
61742;BME280;47650;49.848;9.620;2022-11-03T12:32:19;99140.63;;;15.35;56.42
61742;BME280;47650;49.848;9.620;2022-11-03T12:34:45;99138.25;;;14.65;58.18
61742;BME280;47650;49.848;9.620;2022-11-03T12:37:11;99139.38;;;14.71;58.21
61742;BME280;47650;49.848;9.620;2022-11-03T12:39:36;99130.31;;;15.17;57.83
61742;BME280;47650;49.848;9.620;2022-11-03T12:42:03;99128.06;;;15.72;56.65
61742;BME280;47650;49.848;9.620;2022-11-03T12:44:28;99109.75;;;15.90;55.97
61742;BME280;47650;49.848;9.620;2022-11-03T12:46:53;99123.69;;;15.86;54.91
61742;BME280;47650;49.848;9.620;2022-11-03T12:49:19;99108.78;;;16.26;53.64
61742;BME280;47650;49.848;9.620;2022-11-03T12:51:48;99104.97;;;15.86;54.67
61742;BME280;47650;49.848;9.620;2022-11-03T12:54:13;99064.53;;;15.09;56.49
61742;BME280;47650;49.848;9.620;2022-11-03T12:56:48;99086.72;;;15.89;55.88
61742;BME280;47650;49.848;9.620;2022-11-03T12:59:20;99090.31;;;15.60;56.05
61742;BME280;47650;49.848;9.620;2022-11-03T13:01:45;99070.34;;;15.99;55.61
61742;BME280;47650;49.848;9.620;2022-11-03T13:04:10;99064.69;;;16.15;55.37
61742;BME280;47650;49.848;9.620;2022-11-03T13:06:36;99008.41;;;15.95;55.08
61742;BME280;47650;49.848;9.620;2022-11-03T13:09:01;99036.38;;;16.28;54.94
61742;BME280;47650;49.848;9.620;2022-11-03T13:11:26;99045.31;;;16.42;54.43
61742;BME280;47650;49.848;9.620;2022-11-03T13:14:11;99009.81;;;16.26;54.68
61742;BME280;47650;49.848;9.620;2022-11-03T13:16:36;99018.94;;;16.32;54.75
61742;BME280;47650;49.848;9.620;2022-11-03T13:19:02;99021.81;;;16.30;54.76
61742;BME280;47650;49.848;9.620;2022-11-03T13:21:27;99018.94;;;16.32;55.00
61742;BME280;47650;49.848;9.620;2022-11-03T13:23:53;99012.25;;;16.21;55.27
61742;BME280;47650;49.848;9.620;2022-11-03T13:26:20;99010.81;;;16.19;54.66
61742;BME280;47650;49.848;9.620;2022-11-03T13:28:45;99001.88;;;15.55;56.23
61742;BME280;47650;49.848;9.620;2022-11-03T13:31:11;99014.69;;;15.59;57.19
61742;BME280;47650;49.848;9.620;2022-11-03T13:33:37;99015.44;;;15.53;57.12
61742;BME280;47650;49.848;9.620;2022-11-03T13:36:02;99004.75;;;15.53;57.65
61742;BME280;47650;49.848;9.620;2022-11-03T13:38:33;99009.53;;;15.58;57.27
61742;BME280;47650;49.848;9.620;2022-11-03T13:40:58;99003.69;;;15.48;57.61
61742;BME280;47650;49.848;9.620;2022-11-03T13:43:30;98997.38;;;15.55;57.93
61742;BME280;47650;49.848;9.620;2022-11-03T13:45:56;98998.91;;;15.65;57.07
61742;BME280;47650;49.848;9.620;2022-11-03T13:48:26;98981.44;;;15.69;57.08
61742;BME280;47650;49.848;9.620;2022-11-03T13:50:52;98976.63;;;15.79;57.30
61742;BME280;47650;49.848;9.620;2022-11-03T13:53:17;98978.53;;;15.85;57.23
61742;BME280;47650;49.848;9.620;2022-11-03T13:55:43;98966.84;;;15.93;56.90
61742;BME280;47650;49.848;9.620;2022-11-03T13:58:08;98956.19;;;16.00;56.93
61742;BME280;47650;49.848;9.620;2022-11-03T14:00:34;98961.16;;;16.03;56.36
61742;BME280;47650;49.848;9.620;2022-11-03T14:03:00;98948.03;;;16.08;56.84
61742;BME280;47650;49.848;9.620;2022-11-03T14:05:25;98951.09;;;16.05;56.85
61742;BME280;47650;49.848;9.620;2022-11-03T14:07:51;98948.22;;;16.06;56.88
61742;BME280;47650;49.848;9.620;2022-11-03T14:10:16;98921.97;;;15.88;56.90